createdAt,value
2023-01-07T00:01:21.225Z,13
2023-01-07T00:04:16.977Z,12.5
2023-01-07T00:07:16.841Z,17.7375
2023-01-07T00:11:19.403Z,11.6125
2023-01-07T00:14:16.362Z,9.8125
2023-01-07T00:17:16.036Z,10.85
2023-01-07T00:21:17.203Z,12.525
2023-01-07T00:24:18.265Z,10.362499999999999
2023-01-07T00:27:16.018Z,9.7125
2023-01-07T00:31:17.645Z,11
2023-01-07T00:34:16.848Z,11.162500000000001
2023-01-07T00:38:21.066Z,8.6125
2023-01-07T00:41:16.175Z,9.475
2023-01-07T00:44:16.455Z,10.087499999999999
2023-01-07T00:47:16.514Z,7.0375
2023-01-07T00:51:17.584Z,7.6875
2023-01-07T00:54:16.869Z,7.4375
2023-01-07T00:57:16.554Z,11.3375
2023-01-07T01:01:16.634Z,8.024999999999999
2023-01-07T01:04:16.788Z,7.8999999999999995
2023-01-07T01:07:17.059Z,7.5625
2023-01-07T01:11:16.219Z,7.949999999999999
2023-01-07T01:14:16.181Z,9.1625
2023-01-07T01:17:16.193Z,7.5875
2023-01-07T01:21:15.825Z,9.5375
2023-01-07T01:24:15.937Z,8.0125
2023-01-07T01:27:16.055Z,8.425
2023-01-07T01:31:16.127Z,7.3125
2023-01-07T01:34:16.694Z,7.487500000000001
2023-01-07T01:37:16.785Z,7.074999999999999
2023-01-07T01:41:16.537Z,5.175
2023-01-07T01:44:51.183Z,5.35
2023-01-07T01:47:21.297Z,4.7
2023-01-07T01:51:20.312Z,8.25
2023-01-07T01:54:18.542Z,6.4125
2023-01-07T01:57:18.377Z,5.1
2023-01-07T02:01:16.369Z,2.8125
2023-01-07T02:04:20.978Z,5.975
2023-01-07T02:07:17.632Z,6.675
2023-01-07T02:11:30.529Z,7.625
2023-01-07T02:14:33.199Z,9.325
2023-01-07T02:17:26.133Z,8.112499999999999
2023-01-07T02:21:29.315Z,10.2
2023-01-07T02:25:12.034Z,8.4
2023-01-07T02:27:25.755Z,11.4125
2023-01-07T02:31:35.836Z,13.575
2023-01-07T02:34:24.451Z,7.8375
2023-01-07T02:37:25.189Z,8.125
2023-01-07T02:41:25.226Z,9.1375
2023-01-07T02:44:25.356Z,4.5875
2023-01-07T02:47:22.555Z,4.199999999999999
2023-01-07T02:51:16.255Z,6.475
2023-01-07T02:54:21.228Z,6.6000000000000005
2023-01-07T02:57:33.752Z,4.3999999999999995
2023-01-07T03:02:06.553Z,7.4
2023-01-07T03:04:44.784Z,6.175
2023-01-07T03:07:28.021Z,7
2023-01-07T03:11:17.905Z,4.362500000000001
2023-01-07T03:14:19.185Z,4.8999999999999995
2023-01-07T03:17:20.310Z,4.175
2023-01-07T03:21:20.268Z,6.2875
2023-01-07T03:24:16.159Z,3.95
2023-01-07T03:27:19.316Z,8.2875
2023-01-07T03:31:16.562Z,5.2375
2023-01-07T03:34:20.297Z,4.75
2023-01-07T03:37:19.103Z,7.699999999999999
2023-01-07T03:42:40.696Z,12.35
2023-01-07T03:44:16.576Z,10.725
2023-01-07T03:47:16.977Z,11.162499999999998
2023-01-07T03:51:16.365Z,14.4
2023-01-07T03:54:16.785Z,17.925
2023-01-07T03:57:16.831Z,9.149999999999999
2023-01-07T04:01:15.803Z,9.037500000000001
2023-01-07T04:04:16.243Z,12.35
2023-01-07T04:07:16.329Z,6.4
2023-01-07T04:11:16.009Z,7.9375
2023-01-07T04:14:16.346Z,6.362500000000001
2023-01-07T04:17:16.343Z,7.7875
2023-01-07T04:21:15.926Z,5.5875
2023-01-07T04:24:16.072Z,8.925
2023-01-07T04:27:16.276Z,8.6375
2023-01-07T04:31:15.933Z,10.7125
2023-01-07T04:34:16.266Z,6.1875
2023-01-07T04:37:16.110Z,5.15
2023-01-07T04:41:16.126Z,5.2875
2023-01-07T04:44:17.856Z,2.55
2023-01-07T04:47:16.555Z,7.5625
2023-01-07T04:51:15.669Z,5.2
2023-01-07T04:54:17.034Z,4.525
2023-01-07T04:57:16.119Z,4.2875
2023-01-07T05:01:16.355Z,6.4875
2023-01-07T05:04:16.831Z,5.8
2023-01-07T05:07:16.753Z,5
2023-01-07T05:11:21.537Z,6.325
2023-01-07T05:14:16.579Z,4.9125
2023-01-07T05:17:16.613Z,6.55
2023-01-07T05:21:16.400Z,9.3625
2023-01-07T05:24:16.789Z,7.0875
2023-01-07T05:27:16.741Z,4.275
2023-01-07T05:31:15.920Z,5.8625
2023-01-07T05:34:16.342Z,7.175000000000001
2023-01-07T05:37:16.139Z,7.125
2023-01-07T05:41:16.347Z,3.9875
2023-01-07T05:44:16.642Z,4.0375
2023-01-07T05:47:16.564Z,3.9375
2023-01-07T05:51:15.938Z,12.5625
2023-01-07T05:54:16.502Z,4.925
2023-01-07T05:57:16.228Z,5.175000000000001
2023-01-07T06:01:16.056Z,4.7875
2023-01-07T06:04:16.316Z,10.425
2023-01-07T06:07:16.250Z,8.4375
2023-01-07T06:11:16.479Z,7.325
2023-01-07T06:14:16.866Z,7.887499999999999
2023-01-07T06:17:17.004Z,5.85
2023-01-07T06:21:16.270Z,4.8375
2023-01-07T06:24:16.098Z,10.7125
2023-01-07T06:27:16.196Z,6.6
2023-01-07T06:31:15.483Z,5.225
2023-01-07T06:34:15.896Z,5.800000000000001
2023-01-07T06:37:17.897Z,4.2125
2023-01-07T06:41:16.031Z,4.8375
2023-01-07T06:44:16.448Z,7.55
2023-01-07T06:47:16.444Z,8.7625
2023-01-07T06:51:16.222Z,18.275
2023-01-07T06:54:16.450Z,6.1
2023-01-07T06:57:16.459Z,5.237500000000001
2023-01-07T07:01:15.798Z,5.8
2023-01-07T07:04:16.189Z,5.45
2023-01-07T07:07:16.911Z,4.4375
2023-01-07T07:11:15.865Z,4.9875
2023-01-07T07:14:16.134Z,5.15
2023-01-07T07:17:16.444Z,2.8375
2023-01-07T07:21:16.280Z,7.5125
2023-01-07T07:24:16.805Z,3.0125
2023-01-07T07:27:16.636Z,3.8874999999999997
2023-01-07T07:31:16.581Z,9.375
2023-01-07T07:34:16.778Z,6.012499999999999
2023-01-07T07:37:16.706Z,8.2125
2023-01-07T07:41:16.392Z,6.0375
2023-01-07T07:44:16.664Z,8.149999999999999
2023-01-07T07:47:17.870Z,8.712499999999999
2023-01-07T07:51:16.827Z,5.7749999999999995
2023-01-07T07:54:17.018Z,8.5375
2023-01-07T07:57:16.817Z,5.6
2023-01-07T08:01:16.600Z,9.262500000000001
2023-01-07T08:04:16.923Z,7.5249999999999995
2023-01-07T08:07:32.907Z,7.549999999999999
2023-01-07T08:11:16.003Z,13.100000000000001
2023-01-07T08:14:16.224Z,8.337499999999999
2023-01-07T08:17:16.173Z,11.4125
2023-01-07T08:21:16.166Z,8.8625
2023-01-07T08:24:16.608Z,8.787500000000001
2023-01-07T08:27:16.557Z,6.8875
2023-01-07T08:31:16.545Z,9.1625
2023-01-07T08:34:16.816Z,11.675
2023-01-07T08:37:16.708Z,11.675
2023-01-07T08:41:16.175Z,11.6625
2023-01-07T08:44:16.446Z,9.7875
2023-01-07T08:47:16.390Z,6.675
2023-01-07T08:51:15.799Z,12.8
2023-01-07T08:54:16.391Z,10.912500000000001
2023-01-07T08:57:16.969Z,7.587499999999999
2023-01-07T09:01:16.397Z,7.4625
2023-01-07T09:04:16.396Z,7.175
2023-01-07T09:07:16.354Z,7.1375
2023-01-07T09:11:16.479Z,8.662500000000001
2023-01-07T09:14:16.748Z,7.2875000000000005
2023-01-07T09:17:16.816Z,7.800000000000001
2023-01-07T09:21:15.778Z,10.2125
2023-01-07T09:24:16.425Z,6.55
2023-01-07T09:27:16.769Z,7.2375
2023-01-07T09:31:16.611Z,14.2
2023-01-07T09:34:16.830Z,15.912500000000001
2023-01-07T09:37:16.928Z,7.45
2023-01-07T09:41:27.772Z,14.3625
2023-01-07T09:44:25.505Z,10.4
2023-01-07T09:47:19.509Z,17.3125
2023-01-07T09:51:20.421Z,10.2375
2023-01-07T09:54:25.696Z,6.8625
2023-01-07T09:57:17.574Z,11.1875
2023-01-07T10:01:27.113Z,9.9375
2023-01-07T10:04:27.588Z,9.0625
2023-01-07T10:07:26.440Z,6.025
2023-01-07T10:11:26.732Z,10.3
2023-01-07T10:14:39.963Z,11.262500000000001
2023-01-07T10:17:36.985Z,9.7375
2023-01-07T10:21:21.790Z,16.537499999999998
2023-01-07T10:24:22.828Z,7.1625
2023-01-07T10:27:24.332Z,10.3625
2023-01-07T10:31:18.412Z,11.087499999999999
2023-01-07T10:34:21.788Z,9.925
2023-01-07T10:37:26.188Z,15.1
2023-01-07T10:41:21.799Z,7.362499999999999
2023-01-07T10:45:29.738Z,6.9
2023-01-07T10:47:29.435Z,6.5875
2023-01-07T10:51:40.433Z,9.75
2023-01-07T10:54:35.216Z,7.3374999999999995
2023-01-07T10:57:20.138Z,5.875
2023-01-07T11:01:23.185Z,8.85
2023-01-07T11:04:17.272Z,5.75
2023-01-07T11:07:27.548Z,6.612500000000001
2023-01-07T11:11:19.933Z,7.8500000000000005
2023-01-07T11:14:21.050Z,6.3625
2023-01-07T11:17:25.220Z,8.6125
2023-01-07T11:21:42.905Z,10.4875
2023-01-07T11:24:30.305Z,9.1875
2023-01-07T11:27:18.187Z,10.55
2023-01-07T11:31:16.948Z,7.762499999999999
2023-01-07T11:34:21.526Z,5.612500000000001
2023-01-07T11:37:30.657Z,6.6625
2023-01-07T11:41:21.575Z,7.075
2023-01-07T11:44:16.658Z,6.6875
2023-01-07T11:47:17.451Z,9.35
2023-01-07T11:51:16.437Z,10.7125
2023-01-07T11:54:20.977Z,8.174999999999999
2023-01-07T11:57:21.637Z,11.037500000000001
2023-01-07T12:01:18.281Z,17.575000000000003
2023-01-07T12:04:21.064Z,15.350000000000001
2023-01-07T12:07:17.350Z,11.225000000000001
2023-01-07T12:11:16.629Z,8.6875
2023-01-07T12:14:23.743Z,9.25
2023-01-07T12:17:21.694Z,9.225000000000001
2023-01-07T12:31:24.517Z,9.6375
2023-01-07T12:34:28.721Z,12.149999999999999
2023-01-07T12:37:27.416Z,9.875
2023-01-07T12:41:24.800Z,9.9
2023-01-07T12:44:25.023Z,11.024999999999999
2023-01-07T12:47:31.734Z,8.575
2023-01-07T12:51:30.430Z,11.25
2023-01-07T12:54:20.745Z,8.4625
2023-01-07T12:57:20.263Z,10.787500000000001
2023-01-07T13:01:31.321Z,11.3375
2023-01-07T13:04:39.637Z,10.9
2023-01-07T13:07:25.866Z,15.9125
2023-01-07T13:11:23.890Z,23.0625
2023-01-07T13:14:26.504Z,18.137500000000003
2023-01-07T13:17:23.629Z,15.950000000000001
2023-01-07T13:21:21.076Z,11.2875
2023-01-07T13:24:55.446Z,9.275
2023-01-07T13:27:26.465Z,11.4375
2023-01-07T13:31:36.851Z,17.65
2023-01-07T13:34:28.933Z,16.125
2023-01-07T13:37:46.338Z,11.8125
2023-01-07T13:41:26.207Z,11.45
2023-01-07T13:44:50.427Z,13.0375
2023-01-07T13:47:20.641Z,11.875
2023-01-07T13:51:26.271Z,13.912500000000001
2023-01-07T13:54:54.799Z,14.975
2023-01-07T13:57:40.570Z,14.924999999999999
2023-01-07T14:01:20.961Z,22.212500000000002
2023-01-07T14:04:51.078Z,23
2023-01-07T14:07:22.640Z,17.475
2023-01-07T14:11:17.338Z,19.862499999999997
2023-01-07T14:14:30.555Z,19.725
2023-01-07T14:17:27.083Z,16.2625
2023-01-07T14:21:31.276Z,18.3
2023-01-07T14:24:33.486Z,12.6375
2023-01-07T14:28:17.206Z,14.575
2023-01-07T14:31:21.770Z,13.674999999999999
2023-01-07T14:34:21.875Z,10.600000000000001
2023-01-07T14:37:27.872Z,12.775
2023-01-07T14:41:17.727Z,12.037500000000001
2023-01-07T14:44:32.616Z,18.3625
2023-01-07T14:47:52.065Z,16.425
2023-01-07T14:51:51.287Z,13.1875
2023-01-07T14:54:54.108Z,17
2023-01-07T14:57:29.594Z,42
2023-01-07T15:01:36.446Z,124.125
2023-01-07T15:05:08.455Z,275.975
2023-01-07T15:07:24.726Z,308.775
2023-01-07T15:21:29.278Z,179.9875
2023-01-07T15:24:27.170Z,48.9875
2023-01-07T15:27:27.363Z,33.4875
2023-01-07T15:31:23.067Z,33.2875
2023-01-07T15:34:19.139Z,23.862499999999997
2023-01-07T15:37:18.141Z,25.1625
2023-01-07T15:41:25.614Z,26.475
2023-01-07T15:44:21.420Z,33.7375
2023-01-07T15:47:49.897Z,25.75
2023-01-07T15:51:17.705Z,27.025
2023-01-07T15:54:23.520Z,23.612499999999997
2023-01-07T15:57:24.324Z,26.137500000000003
2023-01-07T16:01:18.534Z,26.737499999999997
2023-01-07T16:04:26.136Z,29.7375
2023-01-07T16:07:22.621Z,33.662499999999994
2023-01-07T16:11:24.184Z,41.7625
2023-01-07T16:14:19.774Z,34.8625
2023-01-07T16:17:16.639Z,38.425
2023-01-07T16:21:17.109Z,36.9125
2023-01-07T16:24:19.670Z,32.975
2023-01-07T16:27:29.008Z,37.7125
2023-01-07T16:31:21.974Z,37.7125
2023-01-07T16:34:55.749Z,25.462500000000002
2023-01-07T16:37:19.969Z,31.575
2023-01-07T16:41:23.453Z,36.7625
2023-01-07T16:44:58.217Z,31.512500000000003
2023-01-07T16:47:20.708Z,34.275
2023-01-07T16:51:52.682Z,27.775
2023-01-07T16:54:34.349Z,31.3125
2023-01-07T16:57:29.159Z,29.8125
2023-01-07T17:01:28.434Z,28.8125
2023-01-07T17:04:22.428Z,28.5625
2023-01-07T17:07:23.888Z,29.174999999999997
2023-01-07T17:11:27.645Z,29.1875
2023-01-07T17:14:58.111Z,26.0125
2023-01-07T17:17:23.618Z,26.700000000000003
2023-01-07T17:21:40.863Z,60.975
2023-01-07T17:24:45.991Z,50.3
2023-01-07T17:27:24.058Z,39.75
2023-01-07T17:31:16.876Z,36.525
2023-01-07T17:34:17.079Z,34.95
2023-01-07T17:37:17.436Z,32.3125
2023-01-07T17:43:35.109Z,25.375
2023-01-07T17:44:18.206Z,31.55
2023-01-07T17:47:25.197Z,35.875
2023-01-07T17:51:18.134Z,31.387500000000003
2023-01-07T17:54:20.186Z,30.487499999999997
2023-01-07T17:57:18.322Z,36.237500000000004
2023-01-07T18:01:20.700Z,29.087500000000002
2023-01-07T18:04:17.943Z,31.112499999999997
2023-01-07T18:07:16.983Z,37.75
2023-01-07T18:21:16.088Z,40.162499999999994
2023-01-07T18:24:18.852Z,29.2125
2023-01-07T18:27:17.503Z,32.6875
2023-01-07T18:31:16.476Z,38.7875
2023-01-07T18:34:16.583Z,28.5375
2023-01-07T18:37:18.023Z,30.7125
2023-01-07T18:41:16.674Z,26.875
2023-01-07T18:44:16.920Z,25.0875
2023-01-07T18:47:16.671Z,24.012500000000003
2023-01-07T18:51:16.558Z,31.5375
2023-01-07T18:54:16.637Z,32.0125
2023-01-07T18:57:16.863Z,32.474999999999994
2023-01-07T19:01:16.605Z,37.45
2023-01-07T19:04:18.071Z,45.1875
2023-01-07T19:07:18.397Z,33.6875
2023-01-07T19:11:16.353Z,29.65
2023-01-07T19:14:17.330Z,31.4375
2023-01-07T19:17:17.405Z,36.287499999999994
2023-01-07T19:21:16.697Z,24.7
2023-01-07T19:24:17.061Z,27
2023-01-07T19:27:16.861Z,25.612499999999997
2023-01-07T19:31:27.287Z,28.25
2023-01-07T19:34:20.094Z,25.7125
2023-01-07T19:37:20.644Z,27.224999999999998
2023-01-07T19:41:18.731Z,27.775
2023-01-07T19:44:16.848Z,26.8
2023-01-07T19:47:17.594Z,27.4375
2023-01-07T19:51:16.300Z,22.775
2023-01-07T19:54:16.984Z,20.775
2023-01-07T19:57:16.488Z,25.25
2023-01-07T20:01:17.479Z,31.724999999999998
2023-01-07T20:04:16.697Z,21.424999999999997
2023-01-07T20:07:20.279Z,25.4
2023-01-07T20:11:16.228Z,27.1
2023-01-07T20:14:17.198Z,22.4875
2023-01-07T20:17:17.407Z,30.2
2023-01-07T20:21:20.417Z,29.85
2023-01-07T20:24:18.370Z,26.1875
2023-01-07T20:27:21.213Z,21.3375
2023-01-07T20:31:19.909Z,26.0625
2023-01-07T20:34:17.976Z,25.5875
2023-01-07T20:37:17.829Z,25
2023-01-07T20:41:18.536Z,24.95
2023-01-07T20:44:20.224Z,23.125
2023-01-07T20:47:18.018Z,28.125
2023-01-07T20:51:19.959Z,32.125
2023-01-07T20:54:25.734Z,29.325
2023-01-07T20:57:21.291Z,27.425
2023-01-07T21:01:22.392Z,29.7125
2023-01-07T21:04:18.905Z,28.075
2023-01-07T21:07:18.592Z,19.7
2023-01-07T21:11:18.528Z,30.25
2023-01-07T21:14:16.175Z,28.687500000000004
2023-01-07T21:17:16.227Z,22.175
2023-01-07T21:21:18.701Z,20.675
2023-01-07T21:24:17.707Z,19.3125
2023-01-07T21:27:16.469Z,15.05
2023-01-07T21:31:16.327Z,17.775
2023-01-07T21:34:16.588Z,16.7875
2023-01-07T21:37:16.514Z,13.350000000000001
2023-01-07T21:41:16.797Z,16.9375
2023-01-07T21:44:16.804Z,18.775
2023-01-07T21:47:16.845Z,14.1875
2023-01-07T21:51:18.701Z,15.3
2023-01-07T21:54:16.486Z,15.424999999999999
2023-01-07T21:57:16.910Z,13.362499999999999
2023-01-07T22:01:17.536Z,20.9875
2023-01-07T22:04:16.456Z,32
2023-01-07T22:07:18.258Z,25.375
2023-01-07T22:11:17.405Z,20.975
2023-01-07T22:14:17.999Z,16.3125
2023-01-07T22:17:16.648Z,13.9625
2023-01-07T22:21:17.502Z,16.5
2023-01-07T22:24:16.713Z,16.512500000000003
2023-01-07T22:27:16.743Z,12.625
2023-01-07T22:31:20.450Z,13.962499999999999
2023-01-07T22:34:16.869Z,17.0625
2023-01-07T22:37:20.002Z,13.45
2023-01-07T22:41:17.035Z,18.700000000000003
2023-01-07T22:44:23.520Z,14.9625
2023-01-07T22:47:20.433Z,11.6
2023-01-07T22:51:22.311Z,10.8125
2023-01-07T22:54:17.672Z,9.65
2023-01-07T22:57:17.110Z,8.5375
2023-01-07T23:01:17.861Z,13.9875
2023-01-07T23:04:17.073Z,13.225000000000001
2023-01-07T23:11:47.755Z,13.375
2023-01-07T23:14:17.863Z,13.1375
2023-01-07T23:17:16.110Z,21.725
2023-01-07T23:21:16.819Z,12.275
2023-01-07T23:24:16.982Z,14.4625
2023-01-07T23:27:16.700Z,16.375
2023-01-07T23:31:16.035Z,15.849999999999998
2023-01-07T23:34:21.703Z,13.225
2023-01-07T23:37:16.525Z,13.412500000000001
2023-01-07T23:41:16.480Z,13.3125
2023-01-07T23:44:17.560Z,19.6375
2023-01-07T23:47:16.829Z,22.4125
2023-01-07T23:51:18.404Z,14.412500000000001
2023-01-07T23:54:16.701Z,14.4875
2023-01-07T23:57:16.696Z,19.637500000000003
